createdAt,value
2022-08-05T00:01:20.954Z,4.88
2022-08-05T00:04:13.692Z,6.10
2022-08-05T00:06:59.077Z,4.72
2022-08-05T00:09:44.050Z,5.10
2022-08-05T00:12:29.481Z,5.70
2022-08-05T00:15:55.953Z,4.38
2022-08-05T00:18:21.461Z,5.15
2022-08-05T00:21:08.319Z,5.75
2022-08-05T00:24:10.056Z,4.40
2022-08-05T00:26:56.181Z,4.73
2022-08-05T00:29:41.664Z,5.18
2022-08-05T00:32:26.342Z,4.80
2022-08-05T00:35:11.324Z,5.57
2022-08-05T00:37:57.159Z,6.22
2022-08-05T00:40:52.011Z,5.80
2022-08-05T00:43:47.121Z,5.57
2022-08-05T00:46:42.521Z,6.15
2022-08-05T00:49:32.630Z,6.22
2022-08-05T00:52:28.433Z,5.78
2022-08-05T00:55:14.938Z,6.00
2022-08-05T00:58:00.599Z,6.00
2022-08-05T01:00:47.199Z,6.00
2022-08-05T01:03:34.142Z,5.82
2022-08-05T01:06:19.087Z,6.70
2022-08-05T01:09:06.200Z,5.60
2022-08-05T01:11:55.572Z,5.75
2022-08-05T01:14:51.944Z,6.40
2022-08-05T01:17:43.990Z,6.30
2022-08-05T01:20:48.099Z,5.55
2022-08-05T01:23:43.080Z,7.10
2022-08-05T01:27:00.912Z,6.75
2022-08-05T01:30:05.246Z,8.57
2022-08-05T01:33:08.341Z,7.35
2022-08-05T01:35:58.291Z,9.02
2022-08-05T01:38:48.425Z,7.10
2022-08-05T01:41:36.523Z,7.72
2022-08-05T01:44:24.770Z,6.53
2022-08-05T01:47:22.334Z,7.00
2022-08-05T01:50:17.722Z,6.38
2022-08-05T01:53:06.730Z,8.67
2022-08-05T01:55:58.851Z,9.05
2022-08-05T01:58:52.540Z,7.45
2022-08-05T02:01:40.364Z,6.25
2022-08-05T02:04:29.974Z,6.32
2022-08-05T02:07:22.049Z,8.60
2022-08-05T02:10:08.211Z,7.07
2022-08-05T02:13:03.021Z,9.10
2022-08-05T02:15:55.270Z,6.60
2022-08-05T02:18:50.266Z,6.50
2022-08-05T02:21:49.283Z,7.90
2022-08-05T02:24:38.939Z,8.25
2022-08-05T02:27:30.112Z,7.47
2022-08-05T02:30:51.580Z,6.20
2022-08-05T02:33:44.979Z,6.97
2022-08-05T02:36:35.685Z,7.40
2022-08-05T02:39:23.380Z,7.80
2022-08-05T02:42:10.763Z,6.68
2022-08-05T02:45:12.179Z,8.35
2022-08-05T02:48:11.664Z,6.72
2022-08-05T02:51:00.649Z,7.47
2022-08-05T02:53:46.439Z,7.65
2022-08-05T02:56:33.319Z,6.88
2022-08-05T02:59:19.193Z,7.97
2022-08-05T03:02:14.783Z,6.68
2022-08-05T03:05:02.169Z,6.93
2022-08-05T03:08:04.432Z,8.35
2022-08-05T03:11:55.381Z,7.68
2022-08-05T03:14:02.711Z,7.88
2022-08-05T03:16:48.838Z,6.13
2022-08-05T03:19:38.415Z,8.03
2022-08-05T03:22:32.257Z,7.45
2022-08-05T03:25:33.444Z,6.90
2022-08-05T03:28:24.683Z,7.72
2022-08-05T03:31:10.593Z,8.30
2022-08-05T03:34:04.497Z,6.93
2022-08-05T03:36:50.533Z,7.57
2022-08-05T03:39:57.624Z,8.55
2022-08-05T03:42:51.656Z,7.10
2022-08-05T03:45:57.596Z,8.90
2022-08-05T03:48:45.259Z,9.03
2022-08-05T03:52:50.308Z,7.65
2022-08-05T03:56:04.724Z,9.18
2022-08-05T03:58:19.052Z,7.03
2022-08-05T04:01:08.113Z,8.00
2022-08-05T04:04:09.938Z,9.17
2022-08-05T04:06:56.000Z,8.20
2022-08-05T04:09:53.135Z,7.93
2022-08-05T04:15:24.551Z,7.53
2022-08-05T04:18:12.760Z,7.20
2022-08-05T04:21:07.876Z,7.97
2022-08-05T04:24:05.164Z,7.05
2022-08-05T04:26:52.073Z,7.80
2022-08-05T04:29:37.508Z,8.13
2022-08-05T04:32:30.972Z,7.30
2022-08-05T04:35:19.751Z,8.88
2022-08-05T04:38:06.583Z,8.07
2022-08-05T04:40:52.026Z,7.03
2022-08-05T04:43:40.679Z,8.48
2022-08-05T04:46:33.505Z,6.67
2022-08-05T04:49:19.038Z,7.35
2022-08-05T04:52:10.026Z,8.15
2022-08-05T04:54:57.787Z,6.70
2022-08-05T04:57:47.560Z,6.75
2022-08-05T05:00:35.220Z,7.40
2022-08-05T05:03:20.887Z,8.00
2022-08-05T05:06:38.765Z,6.95
2022-08-05T05:09:17.397Z,6.93
2022-08-05T05:12:03.882Z,6.70
2022-08-05T05:14:49.301Z,7.83
2022-08-05T05:17:56.712Z,8.32
2022-08-05T05:20:44.170Z,7.68
2022-08-05T05:24:01.948Z,8.43
2022-08-05T05:26:36.947Z,9.85
2022-08-05T05:29:25.163Z,8.53
2022-08-05T05:32:30.010Z,6.28
2022-08-05T05:35:19.994Z,6.88
2022-08-05T05:38:09.502Z,6.93
2022-08-05T05:40:58.589Z,7.60
2022-08-05T05:43:57.958Z,7.93
2022-08-05T05:46:45.123Z,8.25
2022-08-05T05:49:33.413Z,6.75
2022-08-05T05:52:26.443Z,11.15
2022-08-05T05:55:17.720Z,7.07
2022-08-05T05:58:02.920Z,6.73
2022-08-05T06:00:49.809Z,6.60
2022-08-05T06:03:54.172Z,6.55
2022-08-05T06:06:47.805Z,6.68
2022-08-05T06:09:50.187Z,6.72
2022-08-05T06:12:42.124Z,5.73
2022-08-05T06:16:28.238Z,6.35
2022-08-05T06:18:33.278Z,8.88
2022-08-05T06:21:24.723Z,7.25
2022-08-05T06:24:25.743Z,7.15
2022-08-05T06:27:17.178Z,8.73
2022-08-05T06:30:21.212Z,7.32
2022-08-05T06:33:09.920Z,7.82
2022-08-05T06:36:03.841Z,6.53
2022-08-05T06:38:54.700Z,6.50
2022-08-05T06:41:41.278Z,6.93
2022-08-05T06:44:27.041Z,7.45
2022-08-05T06:47:30.078Z,9.00
2022-08-05T06:50:17.979Z,6.47
2022-08-05T06:53:11.630Z,6.30
2022-08-05T06:56:11.686Z,6.53
2022-08-05T06:59:14.447Z,8.07
2022-08-05T07:02:00.384Z,6.90
2022-08-05T07:04:45.490Z,6.00
2022-08-05T07:07:35.514Z,7.15
2022-08-05T07:10:30.532Z,9.43
2022-08-05T07:13:57.786Z,8.07
2022-08-05T07:18:00.161Z,8.40
2022-08-05T07:23:02.032Z,7.47
2022-08-05T07:25:56.231Z,6.43
2022-08-05T07:28:42.041Z,6.38
2022-08-05T07:31:54.270Z,4.82
2022-08-05T07:34:32.526Z,5.82
2022-08-05T07:37:17.499Z,7.35
2022-08-05T07:40:26.951Z,5.87
2022-08-05T07:43:20.099Z,7.32
2022-08-05T07:46:06.573Z,7.07
2022-08-05T07:49:10.203Z,5.70
2022-08-05T07:51:55.354Z,6.72
2022-08-05T07:54:41.363Z,7.20
2022-08-05T07:57:57.359Z,6.82
2022-08-05T08:00:39.665Z,6.93
2022-08-05T08:03:24.985Z,5.65
2022-08-05T08:06:30.980Z,5.88
2022-08-05T08:09:16.372Z,6.03
2022-08-05T08:12:11.505Z,4.93
2022-08-05T08:15:03.446Z,6.45
2022-08-05T08:17:52.393Z,4.90
2022-08-05T08:21:00.495Z,5.80
2022-08-05T08:24:03.101Z,6.00
2022-08-05T08:26:50.735Z,5.30
2022-08-05T08:30:05.729Z,5.40
2022-08-05T08:32:43.316Z,6.30
2022-08-05T08:35:28.567Z,5.22
2022-08-05T08:38:35.176Z,6.40
2022-08-05T08:41:50.646Z,5.97
2022-08-05T08:45:20.238Z,5.75
2022-08-05T08:48:06.357Z,6.45
2022-08-05T08:51:07.675Z,5.70
2022-08-05T08:53:50.477Z,4.97
2022-08-05T08:56:39.737Z,6.13
2022-08-05T08:59:34.099Z,5.95
2022-08-05T09:02:20.737Z,7.90
2022-08-05T09:05:17.626Z,5.15
2022-08-05T09:08:03.433Z,5.30
2022-08-05T09:10:51.195Z,5.68
2022-08-05T09:14:10.328Z,5.07
2022-08-05T09:16:42.338Z,6.35
2022-08-05T09:19:36.699Z,4.80
2022-08-05T09:23:18.589Z,5.70
2022-08-05T09:26:11.456Z,5.45
2022-08-05T09:29:08.999Z,5.40
2022-08-05T09:32:43.021Z,4.80
2022-08-05T09:35:12.761Z,4.60
2022-08-05T09:38:18.174Z,5.60
2022-08-05T09:41:06.177Z,5.55
2022-08-05T09:43:53.805Z,6.22
2022-08-05T09:46:40.317Z,5.03
2022-08-05T09:50:00.951Z,5.65
2022-08-05T09:52:48.351Z,4.33
2022-08-05T09:55:56.964Z,5.53
2022-08-05T09:58:56.079Z,4.43
2022-08-05T10:01:45.748Z,5.57
2022-08-05T10:04:38.615Z,5.28
2022-08-05T10:08:11.007Z,4.43
2022-08-05T10:10:39.332Z,4.55
2022-08-05T10:13:45.593Z,5.88
2022-08-05T10:16:37.671Z,4.30
2022-08-05T10:20:03.089Z,4.40
2022-08-05T10:22:35.121Z,4.20
2022-08-05T10:25:22.845Z,5.25
2022-08-05T10:28:16.631Z,4.85
2022-08-05T10:32:52.142Z,4.28
2022-08-05T10:34:09.864Z,4.47
2022-08-05T10:36:55.209Z,4.47
2022-08-05T10:40:03.585Z,4.55
2022-08-05T10:42:54.014Z,5.13
2022-08-05T10:45:41.994Z,4.68
2022-08-05T10:48:57.396Z,5.82
2022-08-05T10:52:00.476Z,4.53
2022-08-05T10:55:01.953Z,4.25
2022-08-05T10:57:47.594Z,5.57
2022-08-05T11:00:42.261Z,5.60
2022-08-05T11:03:29.574Z,4.57
2022-08-05T11:06:17.848Z,4.37
2022-08-05T11:09:24.408Z,5.70
2022-08-05T11:12:24.152Z,4.45
2022-08-05T11:16:00.728Z,3.92
2022-08-05T11:18:34.567Z,4.45
2022-08-05T11:21:31.863Z,4.13
2022-08-05T11:24:34.336Z,3.75
2022-08-05T11:27:37.069Z,4.47
2022-08-05T11:31:06.074Z,4.53
2022-08-05T11:33:53.359Z,4.25
2022-08-05T11:36:47.224Z,4.30
2022-08-05T11:40:00.844Z,4.97
2022-08-05T11:42:48.602Z,4.22
2022-08-05T11:46:30.593Z,4.80
2022-08-05T11:48:53.561Z,3.95
2022-08-05T11:51:44.830Z,4.20
2022-08-05T11:54:37.951Z,4.15
2022-08-05T11:57:28.730Z,4.40
2022-08-05T12:00:30.372Z,4.32
2022-08-05T12:03:23.816Z,3.95
2022-08-05T12:06:16.526Z,4.87
2022-08-05T12:09:04.547Z,4.47
2022-08-05T12:11:50.053Z,4.85
2022-08-05T12:14:43.267Z,4.60
2022-08-05T12:17:36.201Z,4.25
2022-08-05T12:20:41.409Z,4.10
2022-08-05T12:23:26.703Z,4.95
2022-08-05T12:26:12.479Z,4.32
2022-08-05T12:28:57.556Z,3.72
2022-08-05T12:31:53.492Z,3.90
2022-08-05T12:34:39.900Z,4.57
2022-08-05T12:37:29.762Z,4.50
2022-08-05T12:40:26.572Z,4.40
2022-08-05T12:43:20.629Z,3.95
2022-08-05T12:46:06.693Z,4.32
2022-08-05T12:48:58.775Z,4.10
2022-08-05T12:52:14.064Z,3.95
2022-08-05T12:54:57.669Z,3.78
2022-08-05T12:58:37.994Z,4.45
2022-08-05T13:02:02.435Z,3.65
2022-08-05T13:03:56.432Z,3.83
2022-08-05T13:06:44.833Z,4.13
2022-08-05T13:09:36.913Z,4.82
2022-08-05T13:12:23.861Z,3.78
2022-08-05T13:15:17.182Z,3.95
2022-08-05T13:18:09.333Z,3.60
2022-08-05T13:20:55.048Z,4.03
2022-08-05T13:23:50.538Z,4.15
2022-08-05T13:26:37.348Z,3.55
2022-08-05T13:29:37.573Z,3.83
2022-08-05T13:32:29.246Z,3.93
2022-08-05T13:35:22.124Z,4.50
2022-08-05T13:38:20.067Z,3.78
2022-08-05T13:41:16.601Z,3.88
2022-08-05T13:44:03.652Z,3.83
2022-08-05T13:47:05.008Z,3.60
2022-08-05T13:49:54.467Z,3.58
2022-08-05T13:52:39.378Z,3.70
2022-08-05T13:55:41.114Z,3.47
2022-08-05T13:58:30.836Z,3.83
2022-08-05T14:01:16.339Z,3.77
2022-08-05T14:04:20.360Z,3.72
2022-08-05T14:07:12.200Z,3.97
2022-08-05T14:10:18.781Z,4.30
2022-08-05T14:13:07.648Z,3.58
2022-08-05T14:16:07.366Z,3.70
2022-08-05T14:18:54.945Z,3.38
2022-08-05T14:22:09.095Z,3.60
2022-08-05T14:24:47.882Z,2.90
2022-08-05T14:27:35.952Z,3.40
2022-08-05T14:30:26.687Z,3.20
2022-08-05T14:33:16.093Z,3.97
2022-08-05T14:36:02.129Z,3.47
2022-08-05T14:38:47.483Z,3.28
2022-08-05T14:41:33.062Z,3.63
2022-08-05T14:44:20.180Z,3.73
2022-08-05T14:47:06.127Z,3.70
2022-08-05T14:49:59.655Z,3.47
2022-08-05T14:52:53.391Z,3.60
2022-08-05T14:55:43.809Z,3.72
2022-08-05T14:58:37.251Z,3.27
2022-08-05T15:01:48.623Z,3.42
2022-08-05T15:04:29.068Z,3.20
2022-08-05T15:08:05.675Z,3.42
2022-08-05T15:10:19.533Z,3.22
2022-08-05T15:13:14.350Z,3.57
2022-08-05T15:15:59.866Z,3.75
2022-08-05T15:18:47.106Z,3.10
2022-08-05T15:21:32.406Z,3.05
2022-08-05T15:24:20.669Z,3.22
2022-08-05T15:27:09.105Z,2.97
2022-08-05T15:29:56.693Z,3.45
2022-08-05T15:32:42.222Z,3.47
2022-08-05T15:35:27.792Z,3.65
2022-08-05T15:38:35.932Z,3.30
2022-08-05T15:41:24.698Z,3.57
2022-08-05T15:44:30.835Z,3.70
2022-08-05T15:47:32.498Z,4.15
2022-08-05T15:50:21.043Z,3.13
2022-08-05T15:53:10.750Z,3.42
2022-08-05T15:56:03.789Z,3.80
2022-08-05T15:58:50.615Z,3.50
2022-08-05T16:01:39.749Z,3.38
2022-08-05T16:04:26.038Z,3.63
2022-08-05T16:07:11.436Z,3.47
2022-08-05T16:09:58.665Z,4.10
2022-08-05T16:12:43.835Z,3.33
2022-08-05T16:15:32.711Z,3.90
2022-08-05T16:18:19.639Z,3.03
2022-08-05T16:21:05.104Z,3.03
2022-08-05T16:23:53.228Z,3.10
2022-08-05T16:26:57.790Z,3.42
2022-08-05T16:29:47.501Z,3.72
2022-08-05T16:32:36.161Z,4.10
2022-08-05T16:35:28.083Z,3.65
2022-08-05T16:38:25.589Z,4.20
2022-08-05T16:41:29.750Z,4.15
2022-08-05T16:44:19.070Z,4.25
2022-08-05T16:47:06.330Z,3.75
2022-08-05T16:50:12.879Z,3.38
2022-08-05T16:52:58.571Z,5.00
2022-08-05T16:55:57.035Z,5.28
2022-08-05T16:58:42.886Z,4.30
2022-08-05T17:01:52.877Z,3.70
2022-08-05T17:04:33.602Z,3.65
2022-08-05T17:07:39.088Z,3.23
2022-08-05T17:10:26.478Z,4.28
2022-08-05T17:13:17.177Z,3.35
2022-08-05T17:16:28.173Z,3.10
2022-08-05T17:19:12.126Z,3.63
2022-08-05T17:21:58.381Z,5.47
2022-08-05T17:24:45.364Z,3.90
2022-08-05T17:27:33.640Z,4.50
2022-08-05T17:30:28.818Z,3.20
2022-08-05T17:33:14.221Z,3.30
2022-08-05T17:36:07.329Z,3.83
2022-08-05T17:38:55.294Z,3.08
2022-08-05T17:42:28.439Z,3.28
2022-08-05T17:44:51.086Z,3.05
2022-08-05T17:47:36.437Z,3.28
2022-08-05T17:50:28.605Z,2.83
2022-08-05T17:53:14.818Z,3.55
2022-08-05T17:56:01.397Z,3.38
2022-08-05T17:58:48.123Z,3.20
2022-08-05T18:01:46.408Z,5.10
2022-08-05T18:04:35.304Z,2.90
2022-08-05T18:07:41.960Z,4.13
2022-08-05T18:10:27.745Z,3.10
2022-08-05T18:13:17.525Z,3.15
2022-08-05T18:16:04.902Z,4.65
2022-08-05T18:18:50.859Z,5.10
2022-08-05T18:22:07.456Z,2.90
2022-08-05T18:24:41.523Z,4.45
2022-08-05T18:27:28.633Z,2.60
2022-08-05T18:30:13.674Z,2.92
2022-08-05T18:33:00.269Z,2.97
2022-08-05T18:35:59.899Z,2.20
2022-08-05T18:38:49.977Z,2.83
2022-08-05T18:41:58.285Z,4.47
2022-08-05T18:44:49.368Z,3.92
2022-08-05T18:47:40.816Z,2.40
2022-08-05T18:50:46.328Z,3.70
2022-08-05T18:53:34.627Z,3.47
2022-08-05T18:56:28.483Z,3.90
2022-08-05T18:59:43.267Z,2.88
2022-08-05T19:02:28.616Z,2.43
2022-08-05T19:06:06.067Z,3.28
2022-08-05T19:08:20.125Z,4.10
2022-08-05T19:11:07.369Z,3.03
2022-08-05T19:14:01.038Z,3.13
2022-08-05T19:16:56.497Z,3.97
2022-08-05T19:19:47.077Z,3.28
2022-08-05T19:22:33.537Z,3.03
2022-08-05T19:25:29.567Z,2.92
2022-08-05T19:28:15.411Z,5.00
2022-08-05T19:31:01.261Z,1.87
2022-08-05T19:33:56.384Z,3.30
2022-08-05T19:36:42.571Z,3.78
2022-08-05T19:39:29.937Z,2.95
2022-08-05T19:42:17.779Z,2.38
2022-08-05T19:45:05.659Z,2.67
2022-08-05T19:47:51.444Z,3.35
2022-08-05T19:50:41.004Z,4.65
2022-08-05T19:56:52.981Z,2.35
2022-08-05T19:59:56.536Z,3.20
2022-08-05T20:02:49.850Z,3.10
2022-08-05T20:05:51.427Z,3.70
2022-08-05T20:08:39.122Z,3.00
2022-08-05T20:16:19.535Z,3.63
2022-08-05T20:19:46.993Z,2.70
2022-08-05T20:23:04.087Z,3.08
2022-08-05T20:25:52.348Z,3.75
2022-08-05T20:28:39.756Z,3.10
2022-08-05T20:31:42.880Z,3.60
2022-08-05T20:34:45.675Z,2.90
2022-08-05T20:38:06.508Z,4.40
2022-08-05T20:42:00.854Z,3.42
2022-08-05T20:45:56.178Z,3.17
2022-08-05T20:49:08.635Z,3.53
2022-08-05T20:56:17.258Z,4.85
2022-08-05T21:00:10.423Z,4.00
2022-08-05T21:02:39.364Z,3.15
2022-08-05T21:05:25.568Z,4.23
2022-08-05T21:08:26.623Z,4.22
2022-08-05T21:12:07.726Z,3.75
2022-08-05T21:14:40.057Z,3.72
2022-08-05T21:17:27.227Z,4.13
2022-08-05T21:20:14.212Z,2.97
2022-08-05T21:23:18.812Z,3.17
2022-08-05T21:26:12.468Z,3.85
2022-08-05T21:29:03.755Z,3.25
2022-08-05T21:31:52.851Z,3.45
2022-08-05T21:34:39.315Z,5.07
2022-08-05T21:37:26.977Z,3.72
2022-08-05T21:40:14.034Z,4.13
2022-08-05T21:43:00.205Z,3.58
2022-08-05T21:45:56.291Z,3.83
2022-08-05T21:48:43.108Z,3.20
2022-08-05T21:52:22.856Z,3.85
2022-08-05T21:54:38.606Z,4.10
2022-08-05T21:57:32.601Z,4.00
2022-08-05T22:00:18.765Z,3.95
2022-08-05T22:03:04.458Z,4.07
2022-08-05T22:05:50.482Z,3.42
2022-08-05T22:08:42.829Z,4.55
2022-08-05T22:11:34.940Z,3.92
2022-08-05T22:14:35.325Z,4.38
2022-08-05T22:17:24.327Z,3.90
2022-08-05T22:20:16.322Z,2.97
2022-08-05T22:23:21.848Z,2.88
2022-08-05T22:26:25.930Z,4.20
2022-08-05T22:29:12.480Z,3.60
2022-08-05T22:32:03.255Z,4.63
2022-08-05T22:34:50.076Z,3.65
2022-08-05T22:37:59.013Z,3.58
2022-08-05T22:40:49.749Z,3.55
2022-08-05T22:43:40.907Z,2.88
2022-08-05T22:46:26.379Z,3.90
2022-08-05T22:49:46.033Z,3.83
2022-08-05T22:52:30.358Z,3.95
2022-08-05T22:55:21.756Z,3.60
2022-08-05T22:58:07.358Z,4.78
2022-08-05T23:00:57.599Z,5.15
2022-08-05T23:03:58.332Z,2.67
2022-08-05T23:06:44.690Z,2.97
2022-08-05T23:09:57.610Z,3.45
2022-08-05T23:12:36.506Z,4.68
2022-08-05T23:15:34.904Z,2.47
2022-08-05T23:18:20.785Z,2.90
2022-08-05T23:21:10.171Z,3.23
2022-08-05T23:23:55.552Z,2.15
2022-08-05T23:26:41.176Z,2.55
2022-08-05T23:29:29.566Z,2.78
2022-08-05T23:32:22.944Z,3.45
2022-08-05T23:35:09.012Z,2.37
2022-08-05T23:37:54.269Z,2.65
2022-08-05T23:40:40.681Z,3.22
2022-08-05T23:43:37.237Z,4.03
2022-08-05T23:46:33.663Z,3.60
2022-08-05T23:49:33.862Z,3.00
2022-08-05T23:52:30.525Z,1.92
2022-08-05T23:55:16.019Z,2.05
2022-08-05T23:58:03.675Z,2.47
